createdAt,value
2022-07-28T00:01:00.984Z,12.65
2022-07-28T00:03:28.868Z,12.59
2022-07-28T00:05:56.803Z,12.55
2022-07-28T00:08:24.592Z,12.49
2022-07-28T00:10:52.486Z,12.44
2022-07-28T00:13:20.299Z,12.40
2022-07-28T00:15:48.301Z,12.35
2022-07-28T00:18:16.322Z,12.31
2022-07-28T00:20:44.099Z,12.29
2022-07-28T00:23:12.030Z,12.26
2022-07-28T00:25:39.908Z,12.23
2022-07-28T00:28:07.719Z,12.20
2022-07-28T00:30:35.517Z,12.15
2022-07-28T00:33:03.473Z,12.13
2022-07-28T00:35:32.640Z,12.09
2022-07-28T00:38:01.146Z,12.05
2022-07-28T00:40:48.102Z,12.02
2022-07-28T00:43:16.591Z,11.99
2022-07-28T00:45:44.555Z,11.96
2022-07-28T00:48:12.673Z,11.92
2022-07-28T00:50:41.152Z,11.88
2022-07-28T00:53:08.984Z,11.83
2022-07-28T00:56:02.755Z,11.81
2022-07-28T00:58:27.962Z,11.76
2022-07-28T01:00:56.380Z,11.74
2022-07-28T01:03:24.812Z,11.72
2022-07-28T01:05:58.241Z,11.69
2022-07-28T01:08:44.817Z,11.66
2022-07-28T01:11:31.235Z,11.61
2022-07-28T01:14:11.270Z,11.57
2022-07-28T01:16:57.943Z,11.54
2022-07-28T01:19:25.659Z,11.49
2022-07-28T01:21:54.164Z,11.45
2022-07-28T01:24:26.799Z,11.43
2022-07-28T01:26:59.207Z,11.39
2022-07-28T01:29:51.689Z,11.35
2022-07-28T01:32:22.080Z,11.32
2022-07-28T01:35:04.041Z,11.29
2022-07-28T01:37:33.038Z,11.26
2022-07-28T01:40:04.381Z,11.21
2022-07-28T01:42:35.812Z,11.17
2022-07-28T01:45:04.594Z,11.14
2022-07-28T01:47:34.075Z,11.11
2022-07-28T01:50:04.021Z,11.08
2022-07-28T01:52:32.436Z,11.04
2022-07-28T01:55:02.414Z,10.98
2022-07-28T01:57:31.752Z,10.94
2022-07-28T02:00:00.554Z,10.90
2022-07-28T02:02:29.780Z,10.85
2022-07-28T02:04:59.314Z,10.80
2022-07-28T02:07:27.189Z,10.77
2022-07-28T02:09:57.531Z,10.72
2022-07-28T02:12:26.657Z,10.69
2022-07-28T02:14:55.523Z,10.65
2022-07-28T02:17:28.226Z,10.62
2022-07-28T02:19:57.100Z,10.58
2022-07-28T02:22:27.079Z,10.55
2022-07-28T02:24:56.256Z,10.51
2022-07-28T02:27:38.622Z,10.48
2022-07-28T02:30:17.686Z,10.44
2022-07-28T02:32:50.313Z,10.42
2022-07-28T02:35:49.123Z,10.39
2022-07-28T02:38:26.881Z,10.37
2022-07-28T02:40:57.536Z,10.35
2022-07-28T02:43:49.003Z,10.32
2022-07-28T02:46:20.429Z,10.29
2022-07-28T02:48:52.944Z,10.25
2022-07-28T02:51:23.906Z,10.24
2022-07-28T02:53:52.260Z,10.21
2022-07-28T02:56:20.490Z,10.19
2022-07-28T02:58:48.559Z,10.17
2022-07-28T03:01:20.079Z,10.15
2022-07-28T03:03:49.419Z,10.12
2022-07-28T03:06:19.788Z,10.12
2022-07-28T03:08:57.541Z,10.11
2022-07-28T03:11:25.492Z,10.12
2022-07-28T03:13:53.773Z,10.14
2022-07-28T03:16:22.941Z,10.17
2022-07-28T03:18:51.044Z,10.20
2022-07-28T03:21:18.840Z,10.24
2022-07-28T03:23:48.371Z,10.29
2022-07-28T03:26:18.181Z,10.35
2022-07-28T03:28:46.790Z,10.41
2022-07-28T03:31:15.502Z,10.44
2022-07-28T03:33:43.500Z,10.51
2022-07-28T03:36:14.756Z,10.56
2022-07-28T03:38:46.952Z,10.64
2022-07-28T03:41:15.266Z,10.73
2022-07-28T03:43:43.610Z,10.83
2022-07-28T03:46:13.602Z,10.92
2022-07-28T03:48:41.580Z,11.03
2022-07-28T03:51:09.409Z,11.13
2022-07-28T03:53:37.835Z,11.23
2022-07-28T03:56:06.504Z,11.34
2022-07-28T03:58:34.415Z,11.48
2022-07-28T04:01:02.431Z,11.59
2022-07-28T04:03:43.251Z,11.70
2022-07-28T04:06:13.124Z,11.83
2022-07-28T04:08:42.909Z,11.96
2022-07-28T04:11:10.858Z,12.11
2022-07-28T04:13:38.841Z,12.24
2022-07-28T04:16:07.402Z,12.35
2022-07-28T04:18:35.767Z,12.48
2022-07-28T04:21:04.154Z,12.65
2022-07-28T04:23:33.088Z,12.81
2022-07-28T04:26:00.847Z,12.98
2022-07-28T04:28:28.646Z,13.15
2022-07-28T04:30:56.478Z,13.32
2022-07-28T04:33:24.953Z,13.49
2022-07-28T04:35:53.307Z,13.66
2022-07-28T04:38:21.133Z,13.83
2022-07-28T04:40:49.289Z,14.01
2022-07-28T04:43:17.246Z,14.17
2022-07-28T04:45:53.757Z,14.35
2022-07-28T04:48:24.042Z,14.52
2022-07-28T04:50:53.253Z,14.67
2022-07-28T04:53:22.507Z,14.83
2022-07-28T04:55:53.505Z,14.97
2022-07-28T04:58:23.733Z,15.10
2022-07-28T05:00:52.053Z,15.24
2022-07-28T05:03:20.779Z,15.36
2022-07-28T05:05:54.923Z,15.50
2022-07-28T05:08:25.674Z,15.63
2022-07-28T05:10:55.762Z,15.79
2022-07-28T05:13:24.088Z,15.96
2022-07-28T05:15:51.850Z,16.12
2022-07-28T05:18:19.599Z,16.26
2022-07-28T05:20:47.399Z,16.41
2022-07-28T05:23:15.826Z,16.54
2022-07-28T05:25:43.607Z,16.66
2022-07-28T05:28:11.583Z,16.82
2022-07-28T05:30:39.732Z,16.96
2022-07-28T05:33:07.760Z,17.04
2022-07-28T05:35:35.763Z,17.18
2022-07-28T05:38:06.391Z,17.30
2022-07-28T05:40:38.378Z,17.43
2022-07-28T05:43:06.799Z,17.58
2022-07-28T05:45:34.936Z,17.71
2022-07-28T05:48:02.753Z,17.84
2022-07-28T05:50:30.653Z,17.99
2022-07-28T05:52:58.400Z,18.15
2022-07-28T05:55:26.394Z,18.31
2022-07-28T05:57:54.486Z,18.48
2022-07-28T06:00:23.181Z,18.62
2022-07-28T06:02:51.562Z,18.78
2022-07-28T06:05:21.313Z,18.90
2022-07-28T06:07:50.937Z,19.08
2022-07-28T06:10:22.686Z,19.21
2022-07-28T06:12:55.472Z,19.34
2022-07-28T06:15:28.129Z,19.53
2022-07-28T06:17:56.134Z,19.72
2022-07-28T06:20:25.119Z,19.89
2022-07-28T06:22:55.116Z,20.06
2022-07-28T06:25:25.814Z,20.23
2022-07-28T06:27:56.211Z,20.37
2022-07-28T06:30:24.401Z,20.48
2022-07-28T06:32:52.373Z,20.60
2022-07-28T06:35:20.470Z,20.75
2022-07-28T06:37:50.933Z,20.89
2022-07-28T06:40:20.146Z,21.03
2022-07-28T06:42:47.860Z,21.16
2022-07-28T06:45:20.724Z,21.24
2022-07-28T06:47:53.749Z,21.38
2022-07-28T06:50:26.083Z,21.46
2022-07-28T06:52:56.577Z,21.56
2022-07-28T06:55:24.842Z,21.65
2022-07-28T06:57:53.069Z,21.76
2022-07-28T07:00:20.906Z,21.78
2022-07-28T07:02:49.629Z,21.70
2022-07-28T07:05:17.805Z,21.69
2022-07-28T07:07:45.614Z,21.72
2022-07-28T07:10:13.439Z,21.85
2022-07-28T07:12:41.388Z,21.97
2022-07-28T07:15:10.345Z,22.03
2022-07-28T07:17:38.229Z,22.10
2022-07-28T07:20:06.950Z,22.21
2022-07-28T07:22:35.645Z,22.30
2022-07-28T07:25:13.769Z,22.44
2022-07-28T07:27:41.898Z,22.52
2022-07-28T07:30:10.929Z,22.53
2022-07-28T07:32:38.665Z,22.60
2022-07-28T07:35:07.245Z,22.61
2022-07-28T07:37:35.117Z,22.62
2022-07-28T07:40:05.460Z,22.68
2022-07-28T07:42:33.315Z,22.80
2022-07-28T07:45:01.504Z,22.96
2022-07-28T07:47:29.346Z,23.04
2022-07-28T07:49:57.345Z,23.15
2022-07-28T07:52:25.180Z,23.22
2022-07-28T07:54:53.043Z,23.06
2022-07-28T07:57:20.849Z,23.07
2022-07-28T07:59:49.002Z,23.23
2022-07-28T08:02:17.014Z,23.24
2022-07-28T08:04:45.002Z,23.30
2022-07-28T08:07:15.850Z,23.38
2022-07-28T08:09:43.700Z,23.43
2022-07-28T08:12:11.490Z,23.52
2022-07-28T08:14:39.848Z,23.67
2022-07-28T08:17:09.208Z,23.77
2022-07-28T08:19:37.000Z,23.84
2022-07-28T08:22:05.026Z,23.90
2022-07-28T08:24:34.266Z,23.92
2022-07-28T08:27:03.547Z,24.03
2022-07-28T08:29:31.383Z,24.09
2022-07-28T08:32:01.354Z,24.02
2022-07-28T08:34:33.876Z,23.91
2022-07-28T08:37:03.858Z,23.97
2022-07-28T08:39:33.173Z,24.12
2022-07-28T08:42:19.261Z,24.22
2022-07-28T08:44:50.135Z,24.27
2022-07-28T08:47:18.251Z,24.19
2022-07-28T08:49:48.001Z,24.20
2022-07-28T08:52:16.944Z,24.15
2022-07-28T08:54:45.710Z,24.15
2022-07-28T08:57:18.158Z,24.24
2022-07-28T08:59:47.647Z,24.33
2022-07-28T09:02:16.627Z,24.49
2022-07-28T09:04:46.756Z,24.67
2022-07-28T09:07:15.247Z,24.77
2022-07-28T09:09:43.873Z,24.85
2022-07-28T09:12:11.760Z,24.96
2022-07-28T09:14:39.775Z,25.19
2022-07-28T09:17:07.716Z,26.76
2022-07-28T09:19:37.684Z,30.41
2022-07-28T09:22:06.932Z,33.92
2022-07-28T09:24:39.858Z,36.42
2022-07-28T09:27:09.771Z,38.32
2022-07-28T09:29:39.276Z,40.46
2022-07-28T09:32:08.340Z,42.73
2022-07-28T09:34:44.482Z,44.90
2022-07-28T09:37:27.140Z,47.75
2022-07-28T09:40:00.311Z,50.92
2022-07-28T09:42:45.758Z,53.41
2022-07-28T09:45:22.956Z,55.63
2022-07-28T09:48:11.991Z,57.08
2022-07-28T09:50:41.930Z,58.56
2022-07-28T09:53:23.810Z,59.87
2022-07-28T09:56:00.631Z,61.11
2022-07-28T09:58:30.629Z,62.24
2022-07-28T10:01:05.548Z,63.05
2022-07-28T10:03:36.985Z,63.29
2022-07-28T10:06:08.205Z,63.03
2022-07-28T10:08:47.519Z,62.82
2022-07-28T10:11:17.511Z,62.87
2022-07-28T10:13:58.590Z,63.47
2022-07-28T10:16:28.584Z,63.86
2022-07-28T10:18:57.813Z,63.94
2022-07-28T10:21:27.125Z,63.81
2022-07-28T10:23:57.471Z,63.42
2022-07-28T10:26:30.805Z,63.73
2022-07-28T10:29:00.584Z,64.31
2022-07-28T10:31:40.613Z,64.77
2022-07-28T10:34:15.793Z,64.12
2022-07-28T10:36:44.879Z,64.01
2022-07-28T10:39:19.626Z,64.29
2022-07-28T10:41:47.851Z,64.76
2022-07-28T10:44:19.740Z,64.91
2022-07-28T10:46:47.949Z,64.95
2022-07-28T10:49:15.976Z,65.30
2022-07-28T10:52:06.572Z,65.67
2022-07-28T10:54:42.580Z,65.74
2022-07-28T10:57:11.943Z,65.81
2022-07-28T10:59:45.922Z,65.45
2022-07-28T11:02:53.368Z,64.56
2022-07-28T11:05:40.972Z,63.57
2022-07-28T11:08:15.963Z,63.19
2022-07-28T11:10:52.094Z,62.55
2022-07-28T11:13:33.074Z,60.79
2022-07-28T11:16:22.664Z,57.87
2022-07-28T11:19:28.672Z,55.36
2022-07-28T11:22:22.327Z,52.07
2022-07-28T11:25:19.483Z,49.22
2022-07-28T11:27:52.085Z,47.76
2022-07-28T11:30:27.652Z,47.10
2022-07-28T11:32:55.713Z,45.88
2022-07-28T11:35:28.067Z,44.25
2022-07-28T11:38:02.093Z,42.67
2022-07-28T11:40:46.923Z,41.39
2022-07-28T11:43:26.614Z,39.49
2022-07-28T11:46:10.253Z,37.88
2022-07-28T11:48:42.355Z,36.66
2022-07-28T11:51:11.444Z,35.78
2022-07-28T11:53:50.912Z,35.17
2022-07-28T11:56:37.218Z,34.46
2022-07-28T11:59:06.667Z,33.68
2022-07-28T12:01:36.993Z,33.01
2022-07-28T12:04:15.291Z,32.67
2022-07-28T12:06:49.515Z,32.66
2022-07-28T12:09:25.273Z,32.39
2022-07-28T12:11:55.888Z,31.95
2022-07-28T12:14:24.389Z,31.39
2022-07-28T12:16:53.277Z,31.18
2022-07-28T12:19:22.512Z,31.12
2022-07-28T12:21:55.187Z,30.98
2022-07-28T12:24:32.243Z,30.85
2022-07-28T12:27:15.119Z,30.76
2022-07-28T12:29:43.738Z,30.62
2022-07-28T12:32:13.027Z,30.44
2022-07-28T12:34:42.290Z,30.16
2022-07-28T12:37:10.289Z,30.00
2022-07-28T12:39:43.267Z,29.97
2022-07-28T12:42:13.653Z,29.91
2022-07-28T12:44:43.042Z,29.80
2022-07-28T12:47:12.680Z,29.69
2022-07-28T12:49:42.855Z,29.80
2022-07-28T12:52:23.729Z,29.94
2022-07-28T12:54:55.785Z,29.98
2022-07-28T12:57:49.349Z,29.82
2022-07-28T13:00:21.053Z,29.77
2022-07-28T13:02:50.932Z,29.69
2022-07-28T13:05:30.831Z,29.55
2022-07-28T13:08:02.266Z,29.35
2022-07-28T13:10:31.544Z,29.15
2022-07-28T13:13:08.655Z,29.02
2022-07-28T13:15:36.633Z,28.82
2022-07-28T13:18:05.198Z,28.48
2022-07-28T13:20:47.760Z,28.20
2022-07-28T13:23:16.159Z,28.14
2022-07-28T13:25:44.114Z,28.24
2022-07-28T13:28:27.998Z,28.19
2022-07-28T13:30:55.757Z,27.96
2022-07-28T13:33:23.795Z,27.80
2022-07-28T13:35:53.543Z,27.66
2022-07-28T13:38:21.628Z,27.70
2022-07-28T13:40:49.515Z,27.79
2022-07-28T13:43:18.432Z,27.87
2022-07-28T13:45:48.481Z,27.91
2022-07-28T13:48:16.314Z,27.88
2022-07-28T13:50:44.226Z,27.74
2022-07-28T13:53:31.562Z,27.44
2022-07-28T13:55:59.632Z,27.22
2022-07-28T13:58:28.007Z,27.10
2022-07-28T14:00:58.233Z,27.09
2022-07-28T14:03:27.109Z,27.23
2022-07-28T14:05:55.309Z,27.41
2022-07-28T14:08:25.368Z,27.53
2022-07-28T14:10:56.735Z,27.62
2022-07-28T14:13:28.326Z,27.58
2022-07-28T14:16:02.669Z,27.40
2022-07-28T14:18:34.766Z,27.28
2022-07-28T14:21:04.727Z,27.12
2022-07-28T14:23:32.586Z,27.05
2022-07-28T14:26:25.170Z,26.93
2022-07-28T14:28:48.964Z,26.80
2022-07-28T14:31:18.254Z,26.74
2022-07-28T14:33:52.276Z,26.74
2022-07-28T14:36:22.351Z,26.74
2022-07-28T14:38:54.489Z,26.73
2022-07-28T14:41:23.551Z,26.69
2022-07-28T14:43:51.773Z,26.88
2022-07-28T14:46:21.812Z,27.45
2022-07-28T14:48:50.130Z,28.24
2022-07-28T14:51:18.107Z,28.60
2022-07-28T14:53:51.633Z,28.61
2022-07-28T14:56:19.945Z,28.69
2022-07-28T14:58:47.859Z,28.46
2022-07-28T15:01:15.629Z,28.16
2022-07-28T15:03:43.712Z,27.91
2022-07-28T15:06:11.639Z,27.63
2022-07-28T15:08:39.493Z,27.47
2022-07-28T15:11:08.151Z,27.56
2022-07-28T15:13:36.117Z,27.82
2022-07-28T15:16:04.319Z,27.80
2022-07-28T15:18:32.176Z,27.66
2022-07-28T15:21:00.545Z,27.48
2022-07-28T15:23:28.375Z,27.27
2022-07-28T15:25:56.307Z,27.08
2022-07-28T15:28:24.206Z,26.94
2022-07-28T15:30:52.928Z,26.83
2022-07-28T15:33:21.265Z,26.76
2022-07-28T15:35:59.419Z,26.70
2022-07-28T15:38:29.241Z,26.58
2022-07-28T15:41:00.490Z,26.52
2022-07-28T15:43:29.113Z,26.45
2022-07-28T15:45:57.490Z,26.42
2022-07-28T15:48:25.570Z,26.37
2022-07-28T15:50:53.526Z,26.31
2022-07-28T15:53:23.103Z,26.23
2022-07-28T15:55:51.973Z,26.12
2022-07-28T15:58:21.766Z,25.97
2022-07-28T16:00:50.662Z,25.78
2022-07-28T16:03:18.653Z,25.61
2022-07-28T16:05:49.649Z,25.47
2022-07-28T16:08:18.808Z,25.36
2022-07-28T16:10:53.106Z,25.22
2022-07-28T16:13:36.394Z,25.05
2022-07-28T16:16:11.182Z,24.84
2022-07-28T16:18:42.109Z,24.65
2022-07-28T16:21:10.732Z,24.48
2022-07-28T16:23:38.781Z,24.36
2022-07-28T16:26:09.438Z,24.23
2022-07-28T16:28:37.521Z,24.13
2022-07-28T16:31:05.771Z,24.07
2022-07-28T16:33:34.113Z,24.01
2022-07-28T16:36:02.663Z,23.95
2022-07-28T16:38:30.717Z,23.92
2022-07-28T16:40:58.979Z,23.93
2022-07-28T16:43:26.763Z,23.94
2022-07-28T16:45:54.512Z,23.95
2022-07-28T16:48:22.327Z,23.90
2022-07-28T16:50:50.249Z,23.86
2022-07-28T16:53:18.679Z,23.79
2022-07-28T16:55:48.274Z,23.72
2022-07-28T16:58:18.114Z,23.63
2022-07-28T17:00:45.971Z,23.53
2022-07-28T17:03:14.116Z,23.42
2022-07-28T17:05:42.104Z,23.32
2022-07-28T17:08:10.143Z,23.24
2022-07-28T17:10:38.094Z,23.17
2022-07-28T17:13:06.095Z,23.11
2022-07-28T17:15:34.056Z,23.02
2022-07-28T17:18:02.725Z,22.94
2022-07-28T17:20:30.509Z,22.85
2022-07-28T17:22:58.730Z,22.75
2022-07-28T17:28:14.653Z,22.52
2022-07-28T17:30:42.617Z,22.40
2022-07-28T17:33:10.591Z,22.31
2022-07-28T17:35:40.114Z,22.19
2022-07-28T17:38:09.525Z,22.07
2022-07-28T17:40:38.176Z,21.93
2022-07-28T17:43:06.399Z,21.78
2022-07-28T17:45:34.680Z,21.65
2022-07-28T17:48:02.527Z,21.53
2022-07-28T17:50:30.633Z,21.43
2022-07-28T17:52:58.562Z,21.34
2022-07-28T17:55:57.495Z,21.23
2022-07-28T17:58:29.703Z,21.07
2022-07-28T18:01:11.091Z,20.91
2022-07-28T18:03:58.831Z,20.76
2022-07-28T18:06:34.908Z,20.60
2022-07-28T18:09:12.257Z,20.46
2022-07-28T18:11:57.961Z,20.31
2022-07-28T18:14:28.424Z,20.17
2022-07-28T18:16:56.610Z,20.05
2022-07-28T18:19:25.725Z,19.93
2022-07-28T18:21:54.035Z,19.81
2022-07-28T18:24:22.663Z,19.68
2022-07-28T18:26:52.123Z,19.57
2022-07-28T18:29:21.462Z,19.46
2022-07-28T18:31:52.922Z,19.35
2022-07-28T18:34:23.473Z,19.24
2022-07-28T18:36:53.983Z,19.12
2022-07-28T18:39:22.355Z,18.99
2022-07-28T18:41:50.291Z,18.87
2022-07-28T18:44:19.784Z,18.73
2022-07-28T18:46:48.449Z,18.60
2022-07-28T18:49:16.672Z,18.47
2022-07-28T18:51:45.673Z,18.35
2022-07-28T18:54:18.783Z,18.24
2022-07-28T18:56:50.032Z,18.13
2022-07-28T18:59:17.986Z,18.01
2022-07-28T19:01:45.883Z,17.90
2022-07-28T19:04:14.173Z,17.76
2022-07-28T19:06:42.550Z,17.63
2022-07-28T19:09:10.274Z,17.53
2022-07-28T19:11:42.395Z,17.43
2022-07-28T19:14:15.128Z,17.31
2022-07-28T19:16:43.898Z,17.22
2022-07-28T19:19:13.400Z,17.12
2022-07-28T19:21:43.250Z,17.01
2022-07-28T19:24:16.014Z,16.91
2022-07-28T19:26:46.576Z,16.83
2022-07-28T19:29:14.562Z,16.73
2022-07-28T19:31:42.692Z,16.64
2022-07-28T19:34:10.701Z,16.54
2022-07-28T19:36:41.763Z,16.47
2022-07-28T19:39:12.164Z,16.39
2022-07-28T19:41:40.701Z,16.31
2022-07-28T19:44:08.721Z,16.26
2022-07-28T19:46:39.410Z,16.19
2022-07-28T19:49:09.219Z,16.11
2022-07-28T19:51:38.335Z,16.03
2022-07-28T19:54:06.360Z,15.95
2022-07-28T19:56:34.324Z,15.89
2022-07-28T19:59:02.722Z,15.83
2022-07-28T20:01:31.234Z,15.77
2022-07-28T20:04:03.132Z,15.72
2022-07-28T20:06:33.403Z,15.66
2022-07-28T20:09:02.127Z,15.59
2022-07-28T20:11:31.442Z,15.52
2022-07-28T20:14:00.081Z,15.45
2022-07-28T20:16:28.014Z,15.37
2022-07-28T20:18:57.147Z,15.30
2022-07-28T20:21:26.475Z,15.23
2022-07-28T20:23:55.630Z,15.16
2022-07-28T20:26:26.472Z,15.08
2022-07-28T20:28:56.383Z,15.00
2022-07-28T20:31:24.675Z,14.95
2022-07-28T20:33:53.166Z,14.89
2022-07-28T20:36:23.851Z,14.85
2022-07-28T20:38:56.280Z,14.77
2022-07-28T20:41:24.453Z,14.71
2022-07-28T20:44:18.283Z,14.66
2022-07-28T20:46:40.400Z,14.60
2022-07-28T20:49:08.863Z,14.57
2022-07-28T20:51:36.719Z,14.53
2022-07-28T20:54:04.467Z,14.49
2022-07-28T20:56:32.329Z,14.45
2022-07-28T20:59:06.510Z,14.42
2022-07-28T21:01:34.852Z,14.39
2022-07-28T21:04:03.053Z,14.35
2022-07-28T21:06:31.822Z,14.31
2022-07-28T21:09:01.968Z,14.26
2022-07-28T21:11:35.530Z,14.21
2022-07-28T21:14:04.591Z,14.17
2022-07-28T21:16:32.477Z,14.11
2022-07-28T21:19:02.151Z,14.04
2022-07-28T21:21:30.388Z,13.99
2022-07-28T21:23:58.216Z,13.96
2022-07-28T21:26:26.515Z,13.93
2022-07-28T21:32:02.153Z,13.89
2022-07-28T21:34:34.451Z,13.85
2022-07-28T21:37:03.436Z,13.82
2022-07-28T21:39:31.695Z,13.77
2022-07-28T21:42:00.182Z,13.72
2022-07-28T21:44:27.937Z,13.68
2022-07-28T21:46:55.674Z,13.64
2022-07-28T21:49:23.713Z,13.60
2022-07-28T21:51:51.741Z,13.55
2022-07-28T21:54:20.559Z,13.50
2022-07-28T21:56:48.675Z,13.47
2022-07-28T21:59:16.571Z,13.43
2022-07-28T22:01:45.100Z,13.40
2022-07-28T22:04:13.523Z,13.38
2022-07-28T22:06:46.064Z,13.36
2022-07-28T22:09:15.176Z,13.33
2022-07-28T22:11:43.181Z,13.29
2022-07-28T22:14:11.133Z,13.25
2022-07-28T22:16:39.389Z,13.21
2022-07-28T22:19:07.267Z,13.16
2022-07-28T22:21:35.222Z,13.13
2022-07-28T22:24:03.118Z,13.09
2022-07-28T22:26:30.970Z,13.04
2022-07-28T22:28:58.791Z,13.02
2022-07-28T22:31:26.967Z,12.99
2022-07-28T22:33:54.768Z,12.96
2022-07-28T22:36:22.858Z,12.94
2022-07-28T22:38:50.870Z,12.91
2022-07-28T22:41:18.732Z,12.88
2022-07-28T22:43:46.605Z,12.85
2022-07-28T22:46:14.562Z,12.82
2022-07-28T22:48:42.671Z,12.80
2022-07-28T22:51:14.891Z,12.77
2022-07-28T22:53:42.747Z,12.72
2022-07-28T22:56:11.336Z,12.69
2022-07-28T22:58:40.184Z,12.66
2022-07-28T23:01:08.834Z,12.62
2022-07-28T23:03:37.093Z,12.58
2022-07-28T23:06:06.159Z,12.54
2022-07-28T23:08:34.519Z,12.50
2022-07-28T23:11:02.379Z,12.47
2022-07-28T23:13:30.198Z,12.43
2022-07-28T23:15:58.453Z,12.39
2022-07-28T23:18:26.476Z,12.36
2022-07-28T23:20:54.331Z,12.33
2022-07-28T23:23:22.286Z,12.30
2022-07-28T23:25:50.170Z,12.27
2022-07-28T23:28:18.027Z,12.24
2022-07-28T23:30:47.443Z,12.22
2022-07-28T23:33:56.130Z,12.18
2022-07-28T23:36:05.728Z,12.14
2022-07-28T23:38:33.675Z,12.13
2022-07-28T23:41:01.469Z,12.12
2022-07-28T23:43:30.614Z,12.10
2022-07-28T23:45:58.393Z,12.09
2022-07-28T23:48:26.399Z,12.03
2022-07-28T23:50:54.210Z,11.95
2022-07-28T23:53:22.051Z,11.90
2022-07-28T23:55:50.007Z,11.88
2022-07-28T23:58:17.840Z,11.86
